createdAt,value
2019-05-20T00:03:52.037Z,83.24
2019-05-20T00:08:58.035Z,83.51
2019-05-20T00:14:04.138Z,83.62
2019-05-20T00:19:10.150Z,83.76
2019-05-20T00:24:16.224Z,83.71
2019-05-20T00:29:22.300Z,83.96
2019-05-20T00:34:35.330Z,84.21
2019-05-20T00:39:35.341Z,84.27
2019-05-20T00:44:41.652Z,83.92
2019-05-20T00:49:47.576Z,83.65
2019-05-20T00:54:54.097Z,83.58
2019-05-20T01:00:00.070Z,83.87
2019-05-20T01:05:06.659Z,84.02
2019-05-20T01:10:13.513Z,84.24
2019-05-20T01:15:20.136Z,84.32
2019-05-20T01:20:26.314Z,85.07
2019-05-20T01:25:32.384Z,85.03
2019-05-20T01:30:38.277Z,85.09
2019-05-20T01:35:44.117Z,85.66
2019-05-20T01:40:50.092Z,85.09
2019-05-20T01:45:56.062Z,84.37
2019-05-20T01:51:02.033Z,84.25
2019-05-20T01:56:08.107Z,84.58
2019-05-20T02:01:13.977Z,84.47
2019-05-20T02:06:20.055Z,84.85
2019-05-20T02:11:26.123Z,84.56
2019-05-20T02:16:32.191Z,84.94
2019-05-20T02:21:38.273Z,84.31
2019-05-20T02:26:44.340Z,84.28
2019-05-20T02:31:50.412Z,84.40
2019-05-20T02:36:56.391Z,85.06
2019-05-20T02:42:02.458Z,85.08
2019-05-20T02:47:08.328Z,85.49
2019-05-20T02:52:14.297Z,85.63
2019-05-20T02:57:20.987Z,85.82
2019-05-20T03:02:26.957Z,85.67
2019-05-20T03:07:32.938Z,85.59
2019-05-20T03:12:38.900Z,85.50
2019-05-20T03:17:44.773Z,85.00
2019-05-20T03:22:50.737Z,85.35
2019-05-20T03:27:57.631Z,85.62
2019-05-20T03:33:03.819Z,85.91
2019-05-20T03:38:10.598Z,85.71
2019-05-20T03:43:16.669Z,85.69
2019-05-20T03:48:22.641Z,85.84
2019-05-20T03:53:28.720Z,85.68
2019-05-20T03:58:34.992Z,85.36
2019-05-20T04:03:40.965Z,85.12
2019-05-20T04:08:47.043Z,84.61
2019-05-20T04:13:53.010Z,83.85
2019-05-20T04:18:58.974Z,82.97
2019-05-20T04:24:05.551Z,80.15
2019-05-20T04:29:12.151Z,76.69
2019-05-20T04:34:18.130Z,74.53
2019-05-20T04:39:24.192Z,72.65
2019-05-20T04:44:30.181Z,71.96
2019-05-20T04:49:36.138Z,70.58
2019-05-20T04:54:42.207Z,69.40
2019-05-20T04:59:48.283Z,69.67
2019-05-20T05:04:54.265Z,69.58
2019-05-20T05:10:00.434Z,69.40
2019-05-20T05:15:11.454Z,69.73
2019-05-20T05:20:18.769Z,69.07
2019-05-20T05:25:26.529Z,68.43
2019-05-20T05:30:32.640Z,69.78
2019-05-20T05:35:52.273Z,69.24
2019-05-20T05:40:45.546Z,69.32
2019-05-20T05:45:51.592Z,67.83
2019-05-20T05:50:57.717Z,68.27
2019-05-20T05:56:03.892Z,67.93
2019-05-20T06:01:09.861Z,69.16
2019-05-20T06:06:15.834Z,68.54
2019-05-20T06:11:21.836Z,68.69
2019-05-20T06:16:36.656Z,66.37
2019-05-20T06:21:35.590Z,64.93
2019-05-20T06:26:41.665Z,65.95
2019-05-20T06:31:47.936Z,64.63
2019-05-20T06:36:55.913Z,64.47
2019-05-20T06:42:01.930Z,64.17
2019-05-20T06:47:08.000Z,63.95
2019-05-20T06:52:14.083Z,64.46
2019-05-20T06:57:20.119Z,65.59
2019-05-20T07:02:26.848Z,65.36
2019-05-20T07:07:32.913Z,64.03
2019-05-20T07:12:41.587Z,67.11
2019-05-20T07:17:45.665Z,67.93
2019-05-20T07:22:55.742Z,68.00
2019-05-20T07:27:59.870Z,68.33
2019-05-20T07:33:06.019Z,68.00
2019-05-20T07:38:11.763Z,67.96
2019-05-20T07:43:17.883Z,67.78
2019-05-20T07:48:24.726Z,67.26
2019-05-20T07:53:32.489Z,68.91
2019-05-20T07:58:38.778Z,68.39
2019-05-20T08:03:44.741Z,67.19
2019-05-20T08:08:51.146Z,68.24
2019-05-20T08:13:57.084Z,68.79
2019-05-20T08:19:03.160Z,68.66
2019-05-20T08:24:09.365Z,66.78
2019-05-20T08:29:17.048Z,67.12
2019-05-20T08:34:23.344Z,67.15
2019-05-20T08:39:30.839Z,66.94
2019-05-20T08:44:36.868Z,65.41
2019-05-20T08:49:43.483Z,65.71
2019-05-20T08:54:50.184Z,66.34
2019-05-20T08:59:56.148Z,67.35
2019-05-20T09:05:02.147Z,65.93
2019-05-20T09:10:08.827Z,64.60
2019-05-20T09:15:15.657Z,65.58
2019-05-20T09:20:22.119Z,64.21
2019-05-20T09:25:33.284Z,62.73
2019-05-20T09:30:39.520Z,62.74
2019-05-20T09:35:47.181Z,61.43
2019-05-20T09:40:53.441Z,59.71
2019-05-20T09:46:07.706Z,61.01
2019-05-20T09:51:07.334Z,60.48
2019-05-20T09:56:13.504Z,61.22
2019-05-20T10:01:19.519Z,58.23
2019-05-20T10:06:25.575Z,59.41
2019-05-20T10:11:31.765Z,58.24
2019-05-20T10:16:37.701Z,58.02
2019-05-20T10:21:43.954Z,57.45
2019-05-20T10:26:49.947Z,56.46
2019-05-20T10:31:56.124Z,54.46
2019-05-20T10:37:03.532Z,56.03
2019-05-20T10:42:09.500Z,55.61
2019-05-20T10:47:15.588Z,55.23
2019-05-20T10:52:22.974Z,56.59
2019-05-20T10:57:28.961Z,55.38
2019-05-20T11:02:35.038Z,54.91
2019-05-20T11:07:41.358Z,55.69
2019-05-20T11:12:47.489Z,58.18
2019-05-20T11:17:53.647Z,55.04
2019-05-20T11:23:01.171Z,55.92
2019-05-20T11:28:11.678Z,56.04
2019-05-20T11:33:15.753Z,55.23
2019-05-20T11:38:22.049Z,54.73
2019-05-20T11:43:28.439Z,53.88
2019-05-20T11:48:34.892Z,53.10
2019-05-20T11:53:40.969Z,54.34
2019-05-20T11:58:47.075Z,52.92
2019-05-20T12:03:53.213Z,52.96
2019-05-20T12:08:59.505Z,53.28
2019-05-20T12:14:06.184Z,54.19
2019-05-20T12:19:12.163Z,53.25
2019-05-20T12:24:18.231Z,52.17
2019-05-20T12:29:24.305Z,52.04
2019-05-20T12:34:30.373Z,52.42
2019-05-20T12:39:36.374Z,54.22
2019-05-20T12:44:42.835Z,55.14
2019-05-20T12:49:49.012Z,56.65
2019-05-20T12:55:07.050Z,57.75
2019-05-20T13:00:03.325Z,58.74
2019-05-20T13:05:10.408Z,60.32
2019-05-20T13:10:29.178Z,61.33
2019-05-20T13:15:25.318Z,62.54
2019-05-20T13:20:31.543Z,64.21
2019-05-20T13:25:37.763Z,66.46
2019-05-20T13:30:43.943Z,66.97
2019-05-20T13:35:50.226Z,66.40
2019-05-20T13:40:56.289Z,67.73
2019-05-20T13:46:02.466Z,68.02
2019-05-20T13:51:08.742Z,66.84
2019-05-20T13:56:15.017Z,65.79
2019-05-20T14:01:21.198Z,65.68
2019-05-20T14:06:28.918Z,65.01
2019-05-20T14:11:35.035Z,65.71
2019-05-20T14:16:41.373Z,65.09
2019-05-20T14:21:47.781Z,62.97
2019-05-20T14:26:53.942Z,62.06
2019-05-20T14:31:59.989Z,61.08
2019-05-20T14:37:06.303Z,58.75
2019-05-20T14:42:12.625Z,59.73
2019-05-20T14:47:18.845Z,59.04
2019-05-20T14:52:25.332Z,59.92
2019-05-20T14:57:31.592Z,59.72
2019-05-20T15:02:37.879Z,61.47
2019-05-20T15:07:44.262Z,60.46
2019-05-20T15:12:51.091Z,61.10
2019-05-20T15:17:57.518Z,60.84
2019-05-20T15:23:03.700Z,60.81
2019-05-20T15:28:10.181Z,60.20
2019-05-20T15:33:16.350Z,58.54
2019-05-20T15:38:22.422Z,59.04
2019-05-20T15:43:28.852Z,57.05
2019-05-20T15:48:34.830Z,56.76
2019-05-20T15:53:40.931Z,57.66
2019-05-20T15:58:47.223Z,58.81
2019-05-20T16:03:53.855Z,58.46
2019-05-20T16:09:00.191Z,60.09
2019-05-20T16:14:06.844Z,60.55
2019-05-20T16:19:12.955Z,61.80
2019-05-20T16:24:19.046Z,62.00
2019-05-20T16:29:25.325Z,62.30
2019-05-20T16:34:31.605Z,63.12
2019-05-20T16:39:37.762Z,63.45
2019-05-20T16:44:44.078Z,63.65
2019-05-20T16:49:50.144Z,63.87
2019-05-20T16:54:56.160Z,64.62
2019-05-20T17:00:02.261Z,64.16
2019-05-20T17:05:09.844Z,63.91
2019-05-20T17:10:16.365Z,63.84
2019-05-20T17:15:23.029Z,64.11
2019-05-20T17:20:29.020Z,62.28
2019-05-20T17:25:35.139Z,62.57
2019-05-20T17:30:45.548Z,63.55
2019-05-20T17:35:49.290Z,64.68
2019-05-20T17:40:55.704Z,65.85
2019-05-20T17:46:01.731Z,66.71
2019-05-20T17:51:08.470Z,66.65
2019-05-20T17:56:14.796Z,66.64
2019-05-20T18:01:20.869Z,66.18
2019-05-20T18:06:26.747Z,65.63
2019-05-20T18:11:32.814Z,66.70
2019-05-20T18:16:39.176Z,66.85
2019-05-20T18:21:45.314Z,67.36
2019-05-20T18:26:52.492Z,67.50
2019-05-20T18:31:58.747Z,67.63
2019-05-20T18:37:04.786Z,67.91
2019-05-20T18:42:11.500Z,68.60
2019-05-20T18:47:17.702Z,68.55
2019-05-20T18:52:23.915Z,68.55
2019-05-20T18:57:30.042Z,69.28
2019-05-20T19:02:36.209Z,70.53
2019-05-20T19:07:42.732Z,71.42
2019-05-20T19:12:48.999Z,71.55
2019-05-20T19:17:55.447Z,71.08
2019-05-20T19:23:01.598Z,70.86
2019-05-20T19:28:07.870Z,70.94
2019-05-20T19:33:14.917Z,70.82
2019-05-20T19:38:21.087Z,70.90
2019-05-20T19:43:27.045Z,71.30
2019-05-20T19:48:33.053Z,71.16
2019-05-20T19:53:39.102Z,71.23
2019-05-20T19:58:45.415Z,70.74
2019-05-20T20:03:51.442Z,70.79
2019-05-20T20:08:57.612Z,70.82
2019-05-20T20:14:03.788Z,71.04
2019-05-20T20:19:10.068Z,71.64
2019-05-20T20:24:16.143Z,71.58
2019-05-20T20:29:22.226Z,70.50
2019-05-20T20:34:30.700Z,69.79
2019-05-20T20:39:36.719Z,69.07
2019-05-20T20:44:42.788Z,69.22
2019-05-20T20:49:48.760Z,69.67
2019-05-20T20:54:54.937Z,70.65
2019-05-20T21:00:00.699Z,71.50
2019-05-20T21:05:07.797Z,71.84
2019-05-20T21:10:14.292Z,72.46
2019-05-20T21:15:20.353Z,72.84
2019-05-20T21:20:26.426Z,73.24
2019-05-20T21:25:32.398Z,73.80
2019-05-20T21:30:38.369Z,74.22
2019-05-20T21:35:45.528Z,74.35
2019-05-20T21:40:51.684Z,74.91
2019-05-20T21:45:57.614Z,74.54
2019-05-20T21:51:03.684Z,75.00
2019-05-20T21:56:09.557Z,75.55
2019-05-20T22:01:15.557Z,75.76
2019-05-20T22:06:21.700Z,75.87
2019-05-20T22:11:27.670Z,75.61
2019-05-20T22:16:33.848Z,75.41
2019-05-20T22:21:41.967Z,75.66
2019-05-20T22:26:47.939Z,75.76
2019-05-20T22:31:53.905Z,76.03
2019-05-20T22:36:59.881Z,76.24
2019-05-20T22:42:05.954Z,76.02
2019-05-20T22:47:12.034Z,75.00
2019-05-20T22:52:18.034Z,74.70
2019-05-20T22:57:23.980Z,75.37
2019-05-20T23:02:30.046Z,76.26
2019-05-20T23:07:35.950Z,76.47
2019-05-20T23:12:41.904Z,77.18
2019-05-20T23:17:47.865Z,77.38
2019-05-20T23:22:53.920Z,76.02
2019-05-20T23:27:59.828Z,73.88
2019-05-20T23:33:05.769Z,73.61
2019-05-20T23:38:11.746Z,74.28
2019-05-20T23:43:17.811Z,74.42
2019-05-20T23:48:23.876Z,75.46
2019-05-20T23:53:29.954Z,75.46
2019-05-20T23:58:35.822Z,75.25
